createdAt,value
2022-11-28T00:01:20.426Z,11.03
2022-11-28T00:03:47.943Z,11.09
2022-11-28T00:06:15.402Z,10.79
2022-11-28T00:08:43.003Z,10.22
2022-11-28T00:11:11.492Z,11.13
2022-11-28T00:13:38.943Z,11.00
2022-11-28T00:16:06.935Z,11.17
2022-11-28T00:18:34.550Z,11.06
2022-11-28T00:21:02.601Z,11.08
2022-11-28T00:23:30.370Z,11.05
2022-11-28T00:26:02.027Z,11.27
2022-11-28T00:28:29.327Z,11.42
2022-11-28T00:30:56.632Z,11.36
2022-11-28T00:33:24.204Z,11.35
2022-11-28T00:35:51.619Z,11.27
2022-11-28T00:38:18.836Z,11.23
2022-11-28T00:40:46.366Z,11.35
2022-11-28T00:43:13.551Z,11.42
2022-11-28T00:45:41.154Z,11.47
2022-11-28T00:48:08.645Z,11.53
2022-11-28T00:50:35.809Z,11.50
2022-11-28T00:53:03.029Z,11.59
2022-11-28T00:55:30.499Z,11.58
2022-11-28T00:57:57.727Z,11.58
2022-11-28T01:00:24.959Z,11.58
2022-11-28T01:02:52.502Z,11.54
2022-11-28T01:05:19.713Z,11.61
2022-11-28T01:07:47.003Z,11.67
2022-11-28T01:10:14.517Z,11.61
2022-11-28T01:12:41.777Z,11.63
2022-11-28T01:15:09.787Z,11.40
2022-11-28T01:17:37.321Z,11.54
2022-11-28T01:20:05.609Z,11.45
2022-11-28T01:22:32.768Z,10.96
2022-11-28T01:25:00.253Z,10.91
2022-11-28T01:27:27.505Z,11.27
2022-11-28T01:29:54.768Z,11.33
2022-11-28T01:32:22.217Z,10.78
2022-11-28T01:34:49.425Z,10.93
2022-11-28T01:37:16.628Z,10.81
2022-11-28T01:39:44.107Z,10.44
2022-11-28T01:42:18.135Z,10.92
2022-11-28T01:44:48.709Z,10.93
2022-11-28T01:47:17.068Z,10.46
2022-11-28T01:49:44.260Z,9.40
2022-11-28T01:52:13.548Z,10.45
2022-11-28T01:54:41.092Z,9.30
2022-11-28T01:57:09.233Z,9.30
2022-11-28T01:59:37.772Z,9.21
2022-11-28T02:02:05.571Z,9.90
2022-11-28T02:04:33.079Z,10.17
2022-11-28T02:07:00.256Z,10.53
2022-11-28T02:09:27.483Z,10.17
2022-11-28T02:12:13.855Z,10.47
2022-11-28T02:14:41.436Z,10.63
2022-11-28T02:17:24.513Z,10.20
2022-11-28T02:19:51.769Z,10.43
2022-11-28T02:22:28.897Z,10.62
2022-11-28T02:25:15.845Z,9.58
2022-11-28T02:27:56.418Z,8.21
2022-11-28T02:30:42.531Z,8.96
2022-11-28T02:33:10.116Z,8.91
2022-11-28T02:35:48.200Z,9.58
2022-11-28T02:38:24.427Z,9.34
2022-11-28T02:40:57.773Z,9.51
2022-11-28T02:43:31.768Z,9.54
2022-11-28T02:46:02.019Z,10.05
2022-11-28T02:48:36.482Z,9.27
2022-11-28T02:51:10.707Z,10.00
2022-11-28T02:53:38.254Z,9.97
2022-11-28T02:56:05.589Z,10.09
2022-11-28T02:58:32.795Z,10.24
2022-11-28T03:01:00.473Z,10.41
2022-11-28T03:03:41.746Z,9.87
2022-11-28T03:06:17.862Z,10.27
2022-11-28T03:08:48.108Z,10.53
2022-11-28T03:11:16.505Z,10.53
2022-11-28T03:13:51.176Z,10.65
2022-11-28T03:16:23.264Z,10.58
2022-11-28T03:19:02.982Z,10.71
2022-11-28T03:21:38.456Z,10.77
2022-11-28T03:24:20.681Z,10.69
2022-11-28T03:27:06.258Z,10.70
2022-11-28T03:29:41.058Z,10.48
2022-11-28T03:32:10.260Z,10.14
2022-11-28T03:34:38.512Z,10.26
2022-11-28T03:37:09.112Z,10.33
2022-11-28T03:39:38.452Z,10.59
2022-11-28T03:42:13.365Z,9.39
2022-11-28T03:44:48.460Z,10.25
2022-11-28T03:47:15.673Z,10.00
2022-11-28T03:49:44.452Z,9.28
2022-11-28T03:52:13.299Z,9.98
2022-11-28T03:54:42.904Z,10.24
2022-11-28T03:57:12.109Z,9.90
2022-11-28T03:59:43.635Z,10.33
2022-11-28T04:02:14.913Z,9.82
2022-11-28T04:04:48.424Z,10.25
2022-11-28T04:07:22.436Z,9.75
2022-11-28T04:09:51.135Z,10.50
2022-11-28T04:12:47.743Z,9.25
2022-11-28T04:15:20.879Z,9.37
2022-11-28T04:18:10.896Z,8.77
2022-11-28T04:21:14.155Z,9.69
2022-11-28T04:23:42.679Z,9.25
2022-11-28T04:26:29.164Z,9.75
2022-11-28T04:28:56.780Z,10.12
2022-11-28T04:31:24.846Z,9.57
2022-11-28T04:33:53.228Z,9.30
2022-11-28T04:36:20.455Z,8.43
2022-11-28T04:38:56.520Z,9.12
2022-11-28T04:41:28.833Z,9.00
2022-11-28T04:44:00.795Z,9.09
2022-11-28T04:46:31.436Z,8.92
2022-11-28T04:48:58.927Z,9.52
2022-11-28T04:51:29.215Z,8.13
2022-11-28T04:54:22.430Z,8.63
2022-11-28T04:56:52.615Z,9.21
2022-11-28T04:59:19.806Z,8.35
2022-11-28T05:01:47.007Z,8.53
2022-11-28T05:04:14.602Z,9.16
2022-11-28T05:06:41.769Z,9.33
2022-11-28T05:09:12.431Z,9.28
2022-11-28T05:11:40.031Z,8.81
2022-11-28T05:14:07.291Z,7.82
2022-11-28T05:16:34.565Z,8.53
2022-11-28T05:19:02.185Z,9.02
2022-11-28T05:21:29.414Z,8.05
2022-11-28T05:23:56.632Z,8.98
2022-11-28T05:26:24.192Z,9.00
2022-11-28T05:28:51.648Z,9.51
2022-11-28T05:31:20.001Z,9.80
2022-11-28T05:33:47.636Z,9.98
2022-11-28T05:36:15.410Z,10.14
2022-11-28T05:38:42.948Z,10.12
2022-11-28T05:41:10.884Z,10.25
2022-11-28T05:43:38.041Z,9.99
2022-11-28T05:46:06.424Z,10.01
2022-11-28T05:48:33.994Z,10.08
2022-11-28T05:51:03.471Z,9.74
2022-11-28T05:53:30.755Z,9.82
2022-11-28T05:55:58.426Z,9.43
2022-11-28T05:58:25.681Z,9.77
2022-11-28T06:00:52.908Z,9.71
2022-11-28T06:03:20.393Z,10.00
2022-11-28T06:05:48.308Z,9.57
2022-11-28T06:08:16.043Z,8.70
2022-11-28T06:10:43.520Z,9.46
2022-11-28T06:13:10.762Z,8.53
2022-11-28T06:15:38.721Z,9.29
2022-11-28T06:18:06.273Z,9.52
2022-11-28T06:20:34.846Z,8.85
2022-11-28T06:23:01.998Z,9.01
2022-11-28T06:25:29.561Z,8.29
2022-11-28T06:27:56.774Z,8.92
2022-11-28T06:30:23.993Z,8.10
2022-11-28T06:32:51.450Z,8.45
2022-11-28T06:35:18.616Z,9.16
2022-11-28T06:37:45.891Z,8.85
2022-11-28T06:40:13.771Z,9.23
2022-11-28T06:42:40.993Z,9.33
2022-11-28T06:45:09.272Z,7.29
2022-11-28T06:47:36.738Z,8.74
2022-11-28T06:50:04.037Z,8.71
2022-11-28T06:52:31.254Z,8.86
2022-11-28T06:54:58.740Z,8.97
2022-11-28T06:57:26.043Z,9.47
2022-11-28T06:59:53.265Z,9.57
2022-11-28T07:02:20.787Z,9.03
2022-11-28T07:04:48.063Z,9.07
2022-11-28T07:07:16.775Z,9.27
2022-11-28T07:09:44.772Z,8.38
2022-11-28T07:12:12.228Z,8.97
2022-11-28T07:14:39.439Z,9.52
2022-11-28T07:17:07.017Z,9.22
2022-11-28T07:19:34.517Z,9.91
2022-11-28T07:22:01.756Z,8.95
2022-11-28T07:24:30.170Z,8.17
2022-11-28T07:26:57.395Z,8.45
2022-11-28T07:29:24.715Z,9.04
2022-11-28T07:31:52.227Z,9.56
2022-11-28T07:34:19.446Z,8.79
2022-11-28T07:36:46.628Z,8.24
2022-11-28T07:39:17.612Z,8.52
2022-11-28T07:41:44.942Z,8.44
2022-11-28T07:44:13.097Z,8.89
2022-11-28T07:46:40.704Z,8.00
2022-11-28T07:49:07.964Z,7.67
2022-11-28T07:51:35.189Z,6.76
2022-11-28T07:54:03.313Z,7.38
2022-11-28T07:56:57.131Z,6.69
2022-11-28T07:59:19.327Z,6.23
2022-11-28T08:01:46.552Z,7.26
2022-11-28T08:04:14.193Z,7.14
2022-11-28T08:06:41.878Z,7.06
2022-11-28T08:09:09.207Z,6.55
2022-11-28T08:11:36.730Z,6.51
2022-11-28T08:14:04.447Z,6.63
2022-11-28T08:16:31.854Z,6.59
2022-11-28T08:19:02.752Z,7.06
2022-11-28T08:21:31.027Z,7.40
2022-11-28T08:23:59.288Z,5.98
2022-11-28T08:26:30.389Z,7.12
2022-11-28T08:28:58.731Z,6.87
2022-11-28T08:31:27.190Z,6.16
2022-11-28T08:33:55.871Z,6.45
2022-11-28T08:36:23.108Z,5.96
2022-11-28T08:39:03.325Z,6.71
2022-11-28T08:41:37.286Z,6.85
2022-11-28T08:44:04.681Z,6.30
2022-11-28T08:46:32.620Z,6.20
2022-11-28T08:49:04.251Z,6.25
2022-11-28T08:51:31.911Z,5.72
2022-11-28T08:54:00.054Z,6.11
2022-11-28T08:56:27.800Z,6.18
2022-11-28T08:58:55.119Z,6.46
2022-11-28T09:01:23.656Z,6.06
2022-11-28T09:03:51.169Z,6.54
2022-11-28T09:06:18.576Z,6.83
2022-11-28T09:08:46.107Z,5.38
2022-11-28T09:11:14.654Z,6.34
2022-11-28T09:13:41.849Z,6.70
2022-11-28T09:16:09.484Z,7.47
2022-11-28T09:18:36.654Z,7.08
2022-11-28T09:21:04.992Z,6.36
2022-11-28T09:23:32.442Z,6.51
2022-11-28T09:25:59.710Z,7.64
2022-11-28T09:28:28.885Z,6.25
2022-11-28T09:30:59.816Z,6.89
2022-11-28T09:33:27.136Z,6.00
2022-11-28T09:35:55.535Z,6.29
2022-11-28T09:38:23.072Z,6.21
2022-11-28T09:40:50.389Z,6.95
2022-11-28T09:43:23.978Z,7.11
2022-11-28T09:45:51.441Z,7.31
2022-11-28T09:48:26.533Z,6.68
2022-11-28T09:50:55.598Z,6.02
2022-11-28T09:53:43.099Z,6.75
2022-11-28T09:56:14.810Z,7.20
2022-11-28T09:58:52.132Z,7.29
2022-11-28T10:01:26.168Z,6.93
2022-11-28T10:04:12.667Z,6.86
2022-11-28T10:06:45.910Z,7.18
2022-11-28T10:09:16.188Z,6.30
2022-11-28T10:11:43.452Z,7.60
2022-11-28T10:14:10.655Z,7.10
2022-11-28T10:16:46.848Z,6.53
2022-11-28T10:19:25.721Z,6.42
2022-11-28T10:22:03.075Z,7.10
2022-11-28T10:24:41.551Z,6.81
2022-11-28T10:27:09.798Z,6.55
2022-11-28T10:29:49.115Z,7.20
2022-11-28T10:32:17.298Z,6.08
2022-11-28T10:34:50.305Z,6.71
2022-11-28T10:37:19.957Z,7.40
2022-11-28T10:39:47.120Z,6.00
2022-11-28T10:42:32.517Z,5.87
2022-11-28T10:45:03.810Z,5.71
2022-11-28T10:47:49.615Z,6.29
2022-11-28T10:50:21.729Z,7.22
2022-11-28T10:52:51.861Z,7.65
2022-11-28T10:55:26.119Z,7.89
2022-11-28T10:58:02.552Z,6.74
2022-11-28T11:00:29.986Z,6.88
2022-11-28T11:02:57.874Z,6.69
2022-11-28T11:05:26.986Z,7.14
2022-11-28T11:07:55.859Z,7.11
2022-11-28T11:10:24.173Z,7.30
2022-11-28T11:12:52.661Z,6.70
2022-11-28T11:15:20.213Z,7.67
2022-11-28T11:17:47.486Z,7.83
2022-11-28T11:20:35.074Z,6.41
2022-11-28T11:23:10.403Z,6.87
2022-11-28T11:25:37.799Z,6.60
2022-11-28T11:28:05.244Z,7.40
2022-11-28T11:30:38.628Z,7.52
2022-11-28T11:33:07.262Z,6.79
2022-11-28T11:35:35.153Z,7.60
2022-11-28T11:38:17.835Z,7.54
2022-11-28T11:40:45.329Z,6.43
2022-11-28T11:43:24.825Z,6.30
2022-11-28T11:46:21.763Z,7.32
2022-11-28T11:48:50.600Z,8.12
2022-11-28T11:51:28.116Z,7.83
2022-11-28T11:54:05.255Z,7.55
2022-11-28T11:56:36.336Z,7.25
2022-11-28T11:59:05.395Z,8.23
2022-11-28T12:01:33.134Z,8.50
2022-11-28T12:04:17.891Z,7.98
2022-11-28T12:06:53.966Z,8.86
2022-11-28T12:09:26.546Z,8.57
2022-11-28T12:12:06.631Z,7.85
2022-11-28T12:14:34.826Z,8.37
2022-11-28T12:17:32.550Z,7.94
2022-11-28T12:20:28.210Z,7.91
2022-11-28T12:23:15.816Z,7.31
2022-11-28T12:25:53.589Z,7.74
2022-11-28T12:28:41.025Z,8.73
2022-11-28T12:31:20.511Z,6.51
2022-11-28T12:33:52.282Z,7.34
2022-11-28T12:36:23.860Z,7.82
2022-11-28T12:38:57.373Z,7.78
2022-11-28T12:41:33.679Z,6.47
2022-11-28T12:44:03.931Z,7.74
2022-11-28T12:46:51.655Z,7.94
2022-11-28T12:49:18.849Z,8.23
2022-11-28T12:51:50.311Z,7.99
2022-11-28T12:54:17.468Z,7.51
2022-11-28T12:56:54.660Z,8.60
2022-11-28T12:59:37.540Z,7.30
2022-11-28T13:02:16.154Z,7.55
2022-11-28T13:05:02.747Z,7.30
2022-11-28T13:07:48.978Z,7.39
2022-11-28T13:10:34.862Z,6.38
2022-11-28T13:13:10.715Z,7.61
2022-11-28T13:15:41.292Z,7.18
2022-11-28T13:18:22.408Z,7.07
2022-11-28T13:20:53.950Z,6.96
2022-11-28T13:23:25.536Z,7.94
2022-11-28T13:26:04.720Z,7.82
2022-11-28T13:28:38.007Z,8.09
2022-11-28T13:31:25.247Z,8.07
2022-11-28T13:33:53.448Z,8.46
2022-11-28T13:39:17.102Z,8.31
2022-11-28T13:42:43.913Z,9.15
2022-11-28T13:44:59.750Z,9.07
2022-11-28T13:47:29.362Z,8.10
2022-11-28T13:50:16.785Z,8.81
2022-11-28T13:52:44.329Z,9.43
2022-11-28T13:55:30.379Z,9.87
2022-11-28T13:57:57.918Z,9.21
2022-11-28T14:00:25.353Z,8.86
2022-11-28T14:02:53.905Z,7.95
2022-11-28T14:05:34.506Z,9.23
2022-11-28T14:08:02.153Z,9.60
2022-11-28T14:10:29.443Z,9.83
2022-11-28T14:13:02.617Z,9.26
2022-11-28T14:15:37.057Z,9.72
2022-11-28T14:18:31.519Z,9.70
2022-11-28T14:21:18.355Z,9.85
2022-11-28T14:23:47.936Z,10.33
2022-11-28T14:26:32.131Z,9.48
2022-11-28T14:28:59.470Z,9.49
2022-11-28T14:31:31.446Z,10.20
2022-11-28T14:34:03.643Z,9.04
2022-11-28T14:36:33.947Z,9.39
2022-11-28T14:39:24.800Z,9.24
2022-11-28T14:42:04.404Z,9.25
2022-11-28T14:44:47.412Z,9.29
2022-11-28T14:47:21.427Z,7.47
2022-11-28T14:49:48.792Z,7.22
2022-11-28T14:52:37.774Z,8.20
2022-11-28T14:55:04.013Z,7.22
2022-11-28T14:57:36.103Z,8.68
2022-11-28T15:00:08.168Z,8.42
2022-11-28T15:02:52.886Z,7.73
2022-11-28T15:05:31.183Z,7.88
2022-11-28T15:08:11.018Z,8.37
2022-11-28T15:11:01.101Z,8.11
2022-11-28T15:13:33.140Z,8.48
2022-11-28T15:16:00.468Z,8.38
2022-11-28T15:18:28.459Z,8.40
2022-11-28T15:21:03.304Z,8.61
2022-11-28T15:23:32.475Z,8.10
2022-11-28T15:26:00.223Z,8.01
2022-11-28T15:28:28.928Z,8.47
2022-11-28T15:30:56.964Z,8.59
2022-11-28T15:33:25.337Z,8.43
2022-11-28T15:36:03.170Z,8.83
2022-11-28T15:38:30.810Z,7.86
2022-11-28T15:40:58.201Z,8.85
2022-11-28T15:43:25.661Z,9.22
2022-11-28T15:45:54.446Z,9.65
2022-11-28T15:48:39.039Z,9.51
2022-11-28T15:51:07.948Z,9.79
2022-11-28T15:53:40.053Z,8.93
2022-11-28T15:56:11.476Z,9.41
2022-11-28T15:58:39.126Z,9.45
2022-11-28T16:01:14.588Z,9.62
2022-11-28T16:03:48.295Z,9.67
2022-11-28T16:06:16.520Z,9.44
2022-11-28T16:08:54.518Z,9.98
2022-11-28T16:11:22.751Z,8.89
2022-11-28T16:13:50.665Z,9.11
2022-11-28T16:16:18.708Z,9.44
2022-11-28T16:18:46.964Z,9.35
2022-11-28T16:21:14.766Z,8.24
2022-11-28T16:23:42.176Z,9.16
2022-11-28T16:26:18.625Z,9.27
2022-11-28T16:28:55.884Z,9.14
2022-11-28T16:31:24.962Z,9.22
2022-11-28T16:33:52.800Z,9.68
2022-11-28T16:36:20.058Z,8.49
2022-11-28T16:38:48.245Z,8.81
2022-11-28T16:41:15.902Z,8.57
2022-11-28T16:43:45.678Z,8.84
2022-11-28T16:46:20.375Z,8.52
2022-11-28T16:48:49.183Z,8.02
2022-11-28T16:51:16.570Z,8.74
2022-11-28T16:53:55.191Z,7.34
2022-11-28T16:56:31.950Z,8.71
2022-11-28T16:59:03.620Z,8.72
2022-11-28T17:01:31.256Z,8.26
2022-11-28T17:03:59.062Z,8.63
2022-11-28T17:06:27.310Z,9.01
2022-11-28T17:08:55.580Z,8.97
2022-11-28T17:11:23.460Z,8.59
2022-11-28T17:13:51.726Z,7.60
2022-11-28T17:16:20.894Z,7.48
2022-11-28T17:18:48.344Z,8.48
2022-11-28T17:21:16.137Z,8.36
2022-11-28T17:23:43.680Z,8.19
2022-11-28T17:26:10.903Z,7.49
2022-11-28T17:28:38.320Z,8.71
2022-11-28T17:31:06.013Z,9.01
2022-11-28T17:33:33.308Z,9.12
2022-11-28T17:36:00.520Z,9.04
2022-11-28T17:38:29.927Z,9.64
2022-11-28T17:40:57.763Z,9.45
2022-11-28T17:43:24.987Z,9.13
2022-11-28T17:45:52.572Z,9.13
2022-11-28T17:48:20.006Z,8.62
2022-11-28T17:50:49.664Z,8.69
2022-11-28T17:53:18.417Z,8.83
2022-11-28T17:55:47.119Z,8.79
2022-11-28T17:58:17.372Z,7.49
2022-11-28T18:00:48.316Z,8.30
2022-11-28T18:03:16.203Z,7.99
2022-11-28T18:05:45.634Z,8.01
2022-11-28T18:08:17.920Z,7.50
2022-11-28T18:10:48.579Z,6.18
2022-11-28T18:13:17.519Z,7.86
2022-11-28T18:15:46.037Z,8.32
2022-11-28T18:18:13.840Z,8.09
2022-11-28T18:20:41.155Z,8.78
2022-11-28T18:23:09.750Z,8.98
2022-11-28T18:25:40.517Z,9.00
2022-11-28T18:28:07.921Z,8.37
2022-11-28T18:30:35.184Z,9.09
2022-11-28T18:33:02.641Z,8.03
2022-11-28T18:35:30.618Z,7.17
2022-11-28T18:37:58.099Z,8.21
2022-11-28T18:40:25.743Z,8.84
2022-11-28T18:42:53.247Z,7.90
2022-11-28T18:45:21.044Z,8.30
2022-11-28T18:47:48.660Z,8.17
2022-11-28T18:50:16.038Z,8.78
2022-11-28T18:52:43.396Z,9.31
2022-11-28T18:55:10.870Z,9.30
2022-11-28T18:57:38.475Z,8.93
2022-11-28T19:00:06.282Z,8.72
2022-11-28T19:02:33.806Z,9.06
2022-11-28T19:05:01.123Z,9.01
2022-11-28T19:07:28.418Z,8.62
2022-11-28T19:09:55.977Z,8.83
2022-11-28T19:12:23.460Z,8.67
2022-11-28T19:14:51.777Z,8.10
2022-11-28T19:17:19.558Z,7.80
2022-11-28T19:19:47.359Z,8.57
2022-11-28T19:22:14.994Z,8.55
2022-11-28T19:24:42.822Z,7.68
2022-11-28T19:27:14.242Z,7.47
2022-11-28T19:29:42.495Z,6.91
2022-11-28T19:32:10.404Z,6.97
2022-11-28T19:34:37.885Z,7.44
2022-11-28T19:37:05.253Z,7.70
2022-11-28T19:39:32.993Z,8.02
2022-11-28T19:42:04.009Z,8.39
2022-11-28T19:44:31.698Z,8.40
2022-11-28T19:47:00.987Z,8.79
2022-11-28T19:49:29.295Z,8.43
2022-11-28T19:51:56.998Z,8.63
2022-11-28T19:54:25.476Z,8.81
2022-11-28T19:56:53.576Z,8.90
2022-11-28T19:59:20.884Z,8.27
2022-11-28T20:01:50.066Z,8.50
2022-11-28T20:04:17.988Z,8.38
2022-11-28T20:06:45.540Z,8.91
2022-11-28T20:09:13.866Z,8.71
2022-11-28T20:11:41.814Z,8.24
2022-11-28T20:14:12.916Z,7.78
2022-11-28T20:16:40.894Z,8.02
2022-11-28T20:19:10.289Z,7.76
2022-11-28T20:21:37.742Z,7.46
2022-11-28T20:24:07.400Z,7.69
2022-11-28T20:26:39.068Z,6.48
2022-11-28T20:29:06.872Z,6.88
2022-11-28T20:31:35.655Z,6.52
2022-11-28T20:34:04.781Z,7.61
2022-11-28T20:36:32.725Z,7.73
2022-11-28T20:39:00.348Z,7.06
2022-11-28T20:41:28.105Z,7.24
2022-11-28T20:43:55.408Z,7.08
2022-11-28T20:46:23.745Z,5.40
2022-11-28T20:48:51.276Z,5.95
2022-11-28T20:51:20.665Z,5.65
2022-11-28T20:53:48.609Z,6.25
2022-11-28T20:56:17.682Z,6.34
2022-11-28T20:58:45.365Z,6.96
2022-11-28T21:01:17.132Z,5.88
2022-11-28T21:03:44.716Z,5.35
2022-11-28T21:06:12.142Z,6.36
2022-11-28T21:08:39.394Z,5.11
2022-11-28T21:11:07.666Z,6.27
2022-11-28T21:13:34.999Z,6.27
2022-11-28T21:16:09.554Z,5.20
2022-11-28T21:18:37.987Z,6.53
2022-11-28T21:21:15.565Z,7.10
2022-11-28T21:23:43.488Z,6.75
2022-11-28T21:26:14.918Z,6.57
2022-11-28T21:28:42.997Z,5.09
2022-11-28T21:31:14.348Z,6.23
2022-11-28T21:33:41.615Z,6.33
2022-11-28T21:36:09.430Z,6.61
2022-11-28T21:38:36.605Z,6.52
2022-11-28T21:41:03.874Z,6.61
2022-11-28T21:43:32.128Z,6.76
2022-11-28T21:46:03.559Z,6.89
2022-11-28T21:48:31.142Z,6.43
2022-11-28T21:50:58.953Z,6.73
2022-11-28T21:53:26.409Z,6.88
2022-11-28T21:55:55.296Z,6.96
2022-11-28T21:58:26.670Z,6.09
2022-11-28T22:00:58.419Z,6.96
2022-11-28T22:03:26.835Z,7.02
2022-11-28T22:06:04.573Z,7.04
2022-11-28T22:08:33.696Z,6.94
2022-11-28T22:11:04.876Z,6.82
2022-11-28T22:13:32.961Z,6.87
2022-11-28T22:16:00.327Z,6.80
2022-11-28T22:18:31.143Z,6.64
2022-11-28T22:21:06.542Z,6.72
2022-11-28T22:23:39.441Z,7.03
2022-11-28T22:26:07.082Z,6.80
2022-11-28T22:28:35.587Z,6.72
2022-11-28T22:31:06.777Z,6.64
2022-11-28T22:33:34.875Z,6.87
2022-11-28T22:36:10.807Z,6.66
2022-11-28T22:38:38.719Z,5.96
2022-11-28T22:41:07.352Z,6.37
2022-11-28T22:43:34.772Z,6.10
2022-11-28T22:46:02.595Z,6.01
2022-11-28T22:48:30.618Z,6.02
2022-11-28T22:50:58.173Z,6.49
2022-11-28T22:53:25.803Z,6.09
2022-11-28T22:55:52.997Z,5.72
2022-11-28T22:58:20.429Z,6.02
2022-11-28T23:00:47.986Z,6.00
2022-11-28T23:03:15.528Z,5.55
2022-11-28T23:05:47.885Z,5.78
2022-11-28T23:08:17.857Z,5.93
2022-11-28T23:10:45.082Z,4.82
2022-11-28T23:13:12.306Z,4.33
2022-11-28T23:15:43.653Z,5.12
2022-11-28T23:18:13.424Z,5.58
2022-11-28T23:20:41.435Z,6.11
2022-11-28T23:23:08.653Z,5.34
2022-11-28T23:25:36.083Z,5.51
2022-11-28T23:28:03.582Z,5.71
2022-11-28T23:30:30.796Z,4.90
2022-11-28T23:32:58.049Z,5.03
2022-11-28T23:35:25.602Z,5.65
2022-11-28T23:37:52.808Z,5.76
2022-11-28T23:40:19.962Z,5.17
2022-11-28T23:42:47.508Z,5.12
2022-11-28T23:45:14.734Z,5.29
2022-11-28T23:47:41.932Z,4.36
2022-11-28T23:50:09.733Z,4.39
2022-11-28T23:52:36.891Z,5.04
2022-11-28T23:55:04.321Z,5.20
2022-11-28T23:57:31.818Z,6.00
